Time,TemperatureF,DewpointF,PressureIn,WindDirection,WindDirectionDegrees,WindSpeedMPH,WindSpeedGustMPH,Humidity,HourlyPrecipIn,Conditions,Clouds,dailyrainin,SolarRadiationWatts/m^2,SoftwareType,DateUTC
2013-01-27 00:11:00,52.0,52.0,-100.00,NNW,329,0.0,4.0,100,0.00,,,0.00,0.000000,,2013-01-27 06:11:00,
2013-01-27 00:21:00,52.0,52.0,-100.00,NNW,329,0.0,4.0,100,0.00,,,0.00,0.000000,,2013-01-27 06:21:00,
2013-01-27 00:32:00,52.0,52.0,-100.00,NNW,329,0.0,4.0,100,0.00,,,0.00,0.000000,,2013-01-27 06:32:00,
2013-01-27 00:42:00,52.0,52.0,-100.00,NNW,329,0.0,4.0,100,0.00,,,0.00,0.000000,,2013-01-27 06:42:00,
2013-01-27 00:51:00,51.0,51.0,-100.00,ESE,112,0.0,2.0,100,0.00,,,0.00,0.000000,,2013-01-27 06:51:00,
2013-01-27 01:14:00,51.0,51.0,-100.00,ESE,112,0.0,2.0,100,0.00,,,0.00,0.000000,,2013-01-27 07:14:00,
2013-01-27 01:21:00,51.0,51.0,-100.00,ESE,112,0.0,2.0,100,0.00,,,0.00,0.000000,,2013-01-27 07:21:00,
2013-01-27 01:31:00,51.0,51.0,-100.00,ESE,112,0.0,2.0,100,0.00,,,0.00,0.000000,,2013-01-27 07:31:00,
2013-01-27 01:41:00,51.0,51.0,-100.00,ESE,112,0.0,2.0,100,0.00,,,0.00,0.000000,,2013-01-27 07:41:00,
2013-01-27 01:51:00,50.0,50.0,-100.00,East,90,0.0,2.0,100,0.00,,,0.00,0.000000,,2013-01-27 07:51:00,
2013-01-27 02:11:00,50.0,50.0,-100.00,East,90,0.0,2.0,100,0.00,,,0.00,0.000000,,2013-01-27 08:11:00,
2013-01-27 02:22:00,50.0,50.0,-100.00,East,90,0.0,2.0,100,0.00,,,0.00,0.000000,,2013-01-27 08:22:00,
2013-01-27 02:32:00,50.0,50.0,-100.00,East,90,0.0,2.0,100,0.00,,,0.00,0.000000,,2013-01-27 08:32:00,
2013-01-27 02:42:00,50.0,50.0,-100.00,East,90,0.0,2.0,100,0.00,,,0.00,0.000000,,2013-01-27 08:42:00,
2013-01-27 02:51:00,50.0,50.0,-100.00,ESE,110,2.0,3.0,100,0.00,,,0.00,0.000000,,2013-01-27 08:51:00,
2013-01-27 03:21:00,50.0,50.0,-100.00,ESE,110,2.0,3.0,100,0.00,,,0.00,0.000000,,2013-01-27 09:21:00,
2013-01-27 03:32:00,50.0,50.0,-100.00,ESE,110,2.0,3.0,100,0.00,,,0.00,0.000000,,2013-01-27 09:32:00,
2013-01-27 03:41:00,50.0,50.0,-100.00,ESE,110,2.0,3.0,100,0.00,,,0.00,0.000000,,2013-01-27 09:41:00,
2013-01-27 03:51:00,49.0,49.0,-100.00,NNE,17,0.0,3.0,100,0.00,,,0.00,0.000000,,2013-01-27 09:51:00,
2013-01-27 04:11:00,49.0,49.0,-100.00,NNE,17,0.0,3.0,100,0.00,,,0.00,0.000000,,2013-01-27 10:11:00,
2013-01-27 04:21:00,49.0,49.0,-100.00,NNE,17,0.0,3.0,100,0.00,,,0.00,0.000000,,2013-01-27 10:21:00,
2013-01-27 04:31:00,49.0,49.0,-100.00,NNE,17,0.0,3.0,100,0.00,,,0.00,0.000000,,2013-01-27 10:31:00,
2013-01-27 04:42:00,49.0,49.0,-100.00,NNE,17,0.0,3.0,100,0.00,,,0.00,0.000000,,2013-01-27 10:42:00,
2013-01-27 04:51:00,48.0,48.0,-100.00,NNE,31,0.0,2.0,100,0.00,,,0.00,0.000000,,2013-01-27 10:51:00,
2013-01-27 05:21:00,48.0,48.0,-100.00,NNE,31,0.0,2.0,100,0.00,,,0.00,0.000000,,2013-01-27 11:21:00,
2013-01-27 05:32:00,48.0,48.0,-100.00,NNE,31,0.0,2.0,100,0.00,,,0.00,0.000000,,2013-01-27 11:32:00,
2013-01-27 05:42:00,48.0,48.0,-100.00,NNE,31,0.0,2.0,100,0.00,,,0.00,0.000000,,2013-01-27 11:42:00,
2013-01-27 05:51:00,47.0,47.0,-100.00,NE,36,0.0,2.0,100,0.00,,,0.00,0.000000,,2013-01-27 11:51:00,
2013-01-27 06:21:00,47.0,47.0,-100.00,NE,36,0.0,2.0,100,0.00,,,0.00,0.000000,,2013-01-27 12:21:00,
2013-01-27 06:32:00,47.0,47.0,-100.00,NE,36,0.0,2.0,100,0.00,,,0.00,0.000000,,2013-01-27 12:32:00,
2013-01-27 06:42:00,47.0,47.0,-100.00,NE,36,0.0,2.0,100,0.00,,,0.00,0.000000,,2013-01-27 12:42:00,
2013-01-27 06:51:00,47.0,47.0,-100.00,NNE,18,0.0,0.0,100,0.00,,,0.00,1.000000,,2013-01-27 12:51:00,
2013-01-27 07:11:00,47.0,47.0,-100.00,NNE,18,0.0,0.0,100,0.00,,,0.00,1.000000,,2013-01-27 13:11:00,
2013-01-27 07:22:00,47.0,47.0,-100.00,NNE,18,0.0,0.0,100,0.00,,,0.00,1.000000,,2013-01-27 13:22:00,
2013-01-27 07:32:00,47.0,47.0,-100.00,NNE,18,0.0,0.0,100,0.00,,,0.00,1.000000,,2013-01-27 13:32:00,
2013-01-27 07:42:00,47.0,47.0,-100.00,NNE,18,0.0,0.0,100,0.00,,,0.00,1.000000,,2013-01-27 13:42:00,
2013-01-27 07:51:00,51.0,51.0,-100.00,NE,49,0.0,2.0,100,0.00,,,0.00,36.000000,,2013-01-27 13:51:00,
2013-01-27 08:12:00,51.0,51.0,-100.00,NE,49,0.0,2.0,100,0.00,,,0.00,36.000000,,2013-01-27 14:12:00,
2013-01-27 08:22:00,51.0,51.0,-100.00,NE,49,0.0,2.0,100,0.00,,,0.00,36.000000,,2013-01-27 14:22:00,
2013-01-27 08:32:00,51.0,51.0,-100.00,NE,49,0.0,2.0,100,0.00,,,0.00,36.000000,,2013-01-27 14:32:00,
2013-01-27 08:42:00,51.0,51.0,-100.00,NE,49,0.0,2.0,100,0.00,,,0.00,36.000000,,2013-01-27 14:42:00,
2013-01-27 08:51:00,57.0,57.0,-100.00,East,97,2.0,4.0,100,0.00,,,0.00,116.000000,,2013-01-27 14:51:00,
2013-01-27 09:22:00,57.0,57.0,-100.00,East,97,2.0,4.0,100,0.00,,,0.00,116.000000,,2013-01-27 15:22:00,
2013-01-27 09:32:00,57.0,57.0,-100.00,East,97,2.0,4.0,100,0.00,,,0.00,116.000000,,2013-01-27 15:32:00,
2013-01-27 09:42:00,57.0,57.0,-100.00,East,97,2.0,4.0,100,0.00,,,0.00,116.000000,,2013-01-27 15:42:00,
2013-01-27 09:51:00,61.0,61.0,-100.00,ESE,115,4.0,6.0,100,0.00,,,0.00,155.000000,,2013-01-27 15:51:00,
2013-01-27 10:12:00,61.0,61.0,-100.00,ESE,115,4.0,6.0,100,0.00,,,0.00,155.000000,,2013-01-27 16:12:00,
2013-01-27 10:21:00,61.0,61.0,-100.00,ESE,115,4.0,6.0,100,0.00,,,0.00,155.000000,,2013-01-27 16:21:00,
2013-01-27 10:32:00,61.0,61.0,-100.00,ESE,115,4.0,6.0,100,0.00,,,0.00,155.000000,,2013-01-27 16:32:00,
2013-01-27 10:42:00,61.0,61.0,-100.00,ESE,115,4.0,6.0,100,0.00,,,0.00,155.000000,,2013-01-27 16:42:00,
2013-01-27 10:51:00,64.0,63.0,-100.00,ESE,112,4.0,8.0,97,0.00,,,0.00,229.000000,,2013-01-27 16:51:00,
2013-01-27 11:12:00,64.0,63.0,-100.00,ESE,112,4.0,8.0,97,0.00,,,0.00,229.000000,,2013-01-27 17:12:00,
2013-01-27 11:22:00,64.0,63.0,-100.00,ESE,112,4.0,8.0,97,0.00,,,0.00,229.000000,,2013-01-27 17:22:00,
2013-01-27 11:32:00,64.0,63.0,-100.00,ESE,112,4.0,8.0,97,0.00,,,0.00,229.000000,,2013-01-27 17:32:00,
2013-01-27 11:42:00,64.0,63.0,-100.00,ESE,112,4.0,8.0,97,0.00,,,0.00,229.000000,,2013-01-27 17:42:00,
2013-01-27 11:51:00,68.0,63.0,-100.00,SE,138,6.0,11.0,83,0.00,,,0.00,361.000000,,2013-01-27 17:51:00,
2013-01-27 12:12:00,68.0,63.0,-100.00,SE,138,6.0,11.0,83,0.00,,,0.00,361.000000,,2013-01-27 18:12:00,
2013-01-27 12:22:00,68.0,63.0,-100.00,SE,138,6.0,11.0,83,0.00,,,0.00,361.000000,,2013-01-27 18:22:00,
2013-01-27 12:32:00,68.0,63.0,-100.00,SE,138,6.0,11.0,83,0.00,,,0.00,361.000000,,2013-01-27 18:32:00,
2013-01-27 12:42:00,68.0,63.0,-100.00,SE,138,6.0,11.0,83,0.00,,,0.00,361.000000,,2013-01-27 18:42:00,
2013-01-27 12:51:00,70.0,61.0,-100.00,SSE,155,7.0,13.0,74,0.00,,,0.00,407.000000,,2013-01-27 18:51:00,
2013-01-27 13:12:00,70.0,61.0,-100.00,SSE,155,7.0,13.0,74,0.00,,,0.00,407.000000,,2013-01-27 19:12:00,
2013-01-27 13:22:00,70.0,61.0,-100.00,SSE,155,7.0,13.0,74,0.00,,,0.00,407.000000,,2013-01-27 19:22:00,
2013-01-27 13:32:00,70.0,61.0,-100.00,SSE,155,7.0,13.0,74,0.00,,,0.00,407.000000,,2013-01-27 19:32:00,
2013-01-27 13:42:00,70.0,61.0,-100.00,SSE,155,7.0,13.0,74,0.00,,,0.00,407.000000,,2013-01-27 19:42:00,
2013-01-27 13:51:00,70.0,61.0,-100.00,SSE,160,7.0,13.0,74,0.00,,,0.00,468.000000,,2013-01-27 19:51:00,
2013-01-27 14:12:00,70.0,61.0,-100.00,SSE,160,7.0,13.0,74,0.00,,,0.00,468.000000,,2013-01-27 20:12:00,
2013-01-27 14:22:00,70.0,61.0,-100.00,SSE,160,7.0,13.0,74,0.00,,,0.00,468.000000,,2013-01-27 20:22:00,
2013-01-27 14:33:00,70.0,61.0,-100.00,SSE,160,7.0,13.0,74,0.00,,,0.00,468.000000,,2013-01-27 20:33:00,
2013-01-27 14:42:00,70.0,61.0,-100.00,SSE,160,7.0,13.0,74,0.00,,,0.00,468.000000,,2013-01-27 20:42:00,
2013-01-27 14:51:00,70.0,60.0,-100.00,SSE,162,6.0,12.0,70,0.00,,,0.00,417.000000,,2013-01-27 20:51:00,
2013-01-27 15:12:00,70.0,60.0,-100.00,SSE,162,6.0,12.0,70,0.00,,,0.00,417.000000,,2013-01-27 21:12:00,
2013-01-27 15:22:00,70.0,60.0,-100.00,SSE,162,6.0,12.0,70,0.00,,,0.00,417.000000,,2013-01-27 21:22:00,
2013-01-27 15:33:00,70.0,60.0,-100.00,SSE,162,6.0,12.0,70,0.00,,,0.00,417.000000,,2013-01-27 21:33:00,
2013-01-27 15:42:00,70.0,60.0,-100.00,SSE,162,6.0,12.0,70,0.00,,,0.00,417.000000,,2013-01-27 21:42:00,
2013-01-27 15:51:00,70.0,59.0,-100.00,SSE,149,5.0,12.0,69,0.00,,,0.00,330.000000,,2013-01-27 21:51:00,
2013-01-27 16:12:00,70.0,59.0,-100.00,SSE,149,5.0,12.0,69,0.00,,,0.00,330.000000,,2013-01-27 22:12:00,
2013-01-27 16:22:00,70.0,59.0,-100.00,SSE,149,5.0,12.0,69,0.00,,,0.00,330.000000,,2013-01-27 22:22:00,
2013-01-27 16:32:00,70.0,59.0,-100.00,SSE,149,5.0,12.0,69,0.00,,,0.00,330.000000,,2013-01-27 22:32:00,
2013-01-27 16:42:00,70.0,59.0,-100.00,SSE,149,5.0,12.0,69,0.00,,,0.00,330.000000,,2013-01-27 22:42:00,
2013-01-27 16:51:00,68.0,61.0,-100.00,SE,129,5.0,11.0,77,0.00,,,0.00,155.000000,,2013-01-27 22:51:00,
2013-01-27 17:12:00,68.0,61.0,-100.00,SE,129,5.0,11.0,77,0.00,,,0.00,155.000000,,2013-01-27 23:12:00,
2013-01-27 17:22:00,68.0,61.0,-100.00,SE,129,5.0,11.0,77,0.00,,,0.00,155.000000,,2013-01-27 23:22:00,
2013-01-27 17:32:00,68.0,61.0,-100.00,SE,129,5.0,11.0,77,0.00,,,0.00,155.000000,,2013-01-27 23:32:00,
2013-01-27 17:41:00,68.0,61.0,-100.00,SE,129,5.0,11.0,77,0.00,,,0.00,155.000000,,2013-01-27 23:41:00,
2013-01-27 17:51:00,64.0,62.0,-100.00,ESE,111,3.0,7.0,93,0.00,,,0.00,14.000000,,2013-01-27 23:51:00,
2013-01-27 18:11:00,64.0,62.0,-100.00,ESE,111,3.0,7.0,93,0.00,,,0.00,14.000000,,2013-01-28 00:11:00,
2013-01-27 18:21:00,64.0,62.0,-100.00,ESE,111,3.0,7.0,93,0.00,,,0.00,14.000000,,2013-01-28 00:21:00,
2013-01-27 18:32:00,64.0,62.0,-100.00,ESE,111,3.0,7.0,93,0.00,,,0.00,14.000000,,2013-01-28 00:32:00,
2013-01-27 18:42:00,64.0,62.0,-100.00,ESE,111,3.0,7.0,93,0.00,,,0.00,14.000000,,2013-01-28 00:42:00,
2013-01-27 18:51:00,62.0,62.0,-100.00,ESE,111,3.0,8.0,100,0.00,,,0.00,0.000000,,2013-01-28 00:51:00,
2013-01-27 19:11:00,62.0,62.0,-100.00,ESE,111,3.0,8.0,100,0.00,,,0.00,0.000000,,2013-01-28 01:11:00,
2013-01-27 19:22:00,62.0,62.0,-100.00,ESE,111,3.0,8.0,100,0.00,,,0.00,0.000000,,2013-01-28 01:22:00,
2013-01-27 19:33:00,62.0,62.0,-100.00,ESE,111,3.0,8.0,100,0.00,,,0.00,0.000000,,2013-01-28 01:33:00,
2013-01-27 19:42:00,62.0,62.0,-100.00,ESE,111,3.0,8.0,100,0.00,,,0.00,0.000000,,2013-01-28 01:42:00,
2013-01-27 19:51:00,61.0,61.0,-100.00,ESE,104,3.0,6.0,100,0.00,,,0.00,0.000000,,2013-01-28 01:51:00,
2013-01-27 20:11:00,61.0,61.0,-100.00,ESE,104,3.0,6.0,100,0.00,,,0.00,0.000000,,2013-01-28 02:11:00,
2013-01-27 20:22:00,61.0,61.0,-100.00,ESE,104,3.0,6.0,100,0.00,,,0.00,0.000000,,2013-01-28 02:22:00,
2013-01-27 20:32:00,61.0,61.0,-100.00,ESE,104,3.0,6.0,100,0.00,,,0.00,0.000000,,2013-01-28 02:32:00,
2013-01-27 20:42:00,61.0,61.0,-100.00,ESE,104,3.0,6.0,100,0.00,,,0.00,0.000000,,2013-01-28 02:42:00,
2013-01-27 20:51:00,61.0,61.0,-100.00,ESE,114,3.0,6.0,100,0.00,,,0.00,0.000000,,2013-01-28 02:51:00,
2013-01-27 21:12:00,61.0,61.0,-100.00,ESE,114,3.0,6.0,100,0.00,,,0.00,0.000000,,2013-01-28 03:12:00,
2013-01-27 21:22:00,61.0,61.0,-100.00,ESE,114,3.0,6.0,100,0.00,,,0.00,0.000000,,2013-01-28 03:22:00,
2013-01-27 21:32:00,61.0,61.0,-100.00,ESE,114,3.0,6.0,100,0.00,,,0.00,0.000000,,2013-01-28 03:32:00,
2013-01-27 21:42:00,61.0,61.0,-100.00,ESE,114,3.0,6.0,100,0.00,,,0.00,0.000000,,2013-01-28 03:42:00,
2013-01-27 21:51:00,60.0,60.0,-100.00,ESE,123,2.0,7.0,100,0.00,,,0.00,0.000000,,2013-01-28 03:51:00,
2013-01-27 22:11:00,60.0,60.0,-100.00,ESE,123,2.0,7.0,100,0.00,,,0.00,0.000000,,2013-01-28 04:11:00,
2013-01-27 22:22:00,60.0,60.0,-100.00,ESE,123,2.0,7.0,100,0.00,,,0.00,0.000000,,2013-01-28 04:22:00,
2013-01-27 22:32:00,60.0,60.0,-100.00,ESE,123,2.0,7.0,100,0.00,,,0.00,0.000000,,2013-01-28 04:32:00,
2013-01-27 22:42:00,60.0,60.0,-100.00,ESE,123,2.0,7.0,100,0.00,,,0.00,0.000000,,2013-01-28 04:42:00,
2013-01-27 22:51:00,56.0,56.0,-100.00,North,11,0.0,4.0,100,0.00,,,0.00,0.000000,,2013-01-28 04:51:00,
2013-01-27 23:11:00,56.0,56.0,-100.00,North,11,0.0,4.0,100,0.00,,,0.00,0.000000,,2013-01-28 05:11:00,
2013-01-27 23:21:00,56.0,56.0,-100.00,North,11,0.0,4.0,100,0.00,,,0.00,0.000000,,2013-01-28 05:21:00,
2013-01-27 23:32:00,56.0,56.0,-100.00,North,11,0.0,4.0,100,0.00,,,0.00,0.000000,,2013-01-28 05:32:00,
2013-01-27 23:41:00,56.0,56.0,-100.00,North,11,0.0,4.0,100,0.00,,,0.00,0.000000,,2013-01-28 05:41:00,
2013-01-27 23:51:00,53.0,53.0,-100.00,NW,315,0.0,2.0,100,0.00,,,0.00,0.000000,,2013-01-28 05:51:00,